메인 페이지
METAR-TAF:

METAR-TAF

공항 :

존 F. 케네디 국제공항

뉴욕 / JFK, 뉴욕, 미국

위도: 40-38-19N, 경도: 073-45-44W, 고도: 3m

현재 날씨관측

예보는 59분 전, 10:51시(UTC)에 발표되었습니다.
서남서10kt
온도 0°C
습도 64%
기압 1015 hPa
시정: 16.1km
맑음

METAR: KJFK 031051Z 25010KT 10SM CLR 00/M06 A2997 RMK AO2 SLP147 T00001061 $

시각: 06:50 (11:50 UTC)

예보

예보는 30분 전, 11:20시(UTC)에 발표되었습니다.
예보 대상 시간: 03일 12시부터 04일 18시까지 (UTC)
서남서12kt
시정: 10km
맑음
03일 1500시부터 (UTC)
13kt, 순간 최대 풍속 19kt
시정: 10km
맑음
03일 2200시부터 (UTC)
서북서9kt
시정: 10km
고도 4000ft 상공 구름 많음
04일 0300시부터 (UTC)
북서6kt
시정: 10km
고도 4000ft 상공 구름 보통
04일 1200시부터 (UTC)
북서10kt
시정: 10km
고도 3500ft 상공 구름 보통
04일 1500시부터 (UTC)
북서16kt, 순간 최대 풍속 24kt
시정: 10km
고도 4000ft 상공 구름 보통

TAF: KJFK 031120Z 0312/0418 25012KT P6SM SKC FM031500 26013G19KT P6SM SKC FM032200 29009KT P6SM BKN040 FM040300 32006KT P6SM SCT040 FM041200 31010KT P6SM SCT035 FM041500 31016G24KT P6SM SCT040

4,000개 이상의 공항 관측 자료 및 예보 (METAR 및 TAF 보고).

지도상에서 검색 가능한 기상관측소가 노란 점과 빨간 점으로 표시되어 있습니다.

기상관측소 명을 보려면 표시 위로 마우스를 이동하세요.

날씨 관측과 예보를 보려면 클릭하세요.

지도 변경 : 확대하려면 엑스 표시가 있는 녹색 버튼, 축소하려면 빼기 표시가 있는 녹색 버튼, 다음 페이지의 지도를 보려면 녹색 화살표를 클릭하세요.


METAR-TAF: